sensor_id;sensor_type;location;lat;lon;timestamp;P1;durP1;ratioP1;P2;durP2;ratioP2
42760;SDS011;31672;47.638;19.026;2022-07-21T00:03:38;2.20;;;1.40;;
42760;SDS011;31672;47.638;19.026;2022-07-21T00:08:41;3.08;;;1.33;;
42760;SDS011;31672;47.638;19.026;2022-07-21T00:13:44;2.65;;;1.52;;
42760;SDS011;31672;47.638;19.026;2022-07-21T00:18:47;6.90;;;1.42;;
42760;SDS011;31672;47.638;19.026;2022-07-21T00:23:51;3.05;;;1.48;;
42760;SDS011;31672;47.638;19.026;2022-07-21T00:28:54;2.58;;;1.38;;
42760;SDS011;31672;47.638;19.026;2022-07-21T00:33:58;2.35;;;1.25;;
42760;SDS011;31672;47.638;19.026;2022-07-21T00:39:01;2.97;;;1.13;;
42760;SDS011;31672;47.638;19.026;2022-07-21T00:44:05;2.22;;;1.30;;
42760;SDS011;31672;47.638;19.026;2022-07-21T00:49:08;2.25;;;1.20;;
42760;SDS011;31672;47.638;19.026;2022-07-21T00:54:13;3.78;;;1.48;;
42760;SDS011;31672;47.638;19.026;2022-07-21T00:59:18;5.70;;;1.60;;
42760;SDS011;31672;47.638;19.026;2022-07-21T01:04:22;2.15;;;1.27;;
42760;SDS011;31672;47.638;19.026;2022-07-21T01:09:25;6.85;;;1.52;;
42760;SDS011;31672;47.638;19.026;2022-07-21T01:14:28;3.25;;;1.33;;
42760;SDS011;31672;47.638;19.026;2022-07-21T01:19:32;4.82;;;1.17;;
42760;SDS011;31672;47.638;19.026;2022-07-21T01:24:35;3.20;;;1.17;;
42760;SDS011;31672;47.638;19.026;2022-07-21T01:29:38;3.95;;;1.40;;
42760;SDS011;31672;47.638;19.026;2022-07-21T01:34:40;2.28;;;1.45;;
42760;SDS011;31672;47.638;19.026;2022-07-21T01:39:43;5.70;;;1.70;;
42760;SDS011;31672;47.638;19.026;2022-07-21T01:45:07;2.70;;;1.35;;
42760;SDS011;31672;47.638;19.026;2022-07-21T01:50:11;6.45;;;1.30;;
42760;SDS011;31672;47.638;19.026;2022-07-21T01:55:14;2.40;;;1.50;;
42760;SDS011;31672;47.638;19.026;2022-07-21T02:00:17;4.25;;;1.65;;
42760;SDS011;31672;47.638;19.026;2022-07-21T02:05:20;5.22;;;1.48;;
42760;SDS011;31672;47.638;19.026;2022-07-21T02:10:23;2.22;;;1.20;;
42760;SDS011;31672;47.638;19.026;2022-07-21T02:15:26;4.45;;;1.42;;
42760;SDS011;31672;47.638;19.026;2022-07-21T02:20:29;2.88;;;1.45;;
42760;SDS011;31672;47.638;19.026;2022-07-21T02:25:33;1.77;;;1.10;;
42760;SDS011;31672;47.638;19.026;2022-07-21T02:30:36;3.30;;;1.60;;
42760;SDS011;31672;47.638;19.026;2022-07-21T02:35:41;3.47;;;1.50;;
42760;SDS011;31672;47.638;19.026;2022-07-21T02:40:45;3.00;;;1.40;;
42760;SDS011;31672;47.638;19.026;2022-07-21T02:45:48;4.35;;;1.38;;
42760;SDS011;31672;47.638;19.026;2022-07-21T02:50:51;2.10;;;1.27;;
42760;SDS011;31672;47.638;19.026;2022-07-21T02:55:55;4.43;;;1.50;;
42760;SDS011;31672;47.638;19.026;2022-07-21T03:01:02;1.50;;;1.10;;
42760;SDS011;31672;47.638;19.026;2022-07-21T03:06:07;3.53;;;1.60;;
42760;SDS011;31672;47.638;19.026;2022-07-21T03:11:10;3.85;;;2.03;;
42760;SDS011;31672;47.638;19.026;2022-07-21T03:16:13;4.43;;;1.90;;
42760;SDS011;31672;47.638;19.026;2022-07-21T03:27:48;3.80;;;1.92;;
42760;SDS011;31672;47.638;19.026;2022-07-21T03:32:52;9.25;;;2.00;;
42760;SDS011;31672;47.638;19.026;2022-07-21T03:37:56;4.18;;;1.83;;
42760;SDS011;31672;47.638;19.026;2022-07-21T03:43:02;3.05;;;1.90;;
42760;SDS011;31672;47.638;19.026;2022-07-21T03:48:07;6.80;;;1.88;;
42760;SDS011;31672;47.638;19.026;2022-07-21T03:53:11;3.60;;;1.70;;
42760;SDS011;31672;47.638;19.026;2022-07-21T03:58:15;4.60;;;1.60;;
42760;SDS011;31672;47.638;19.026;2022-07-21T04:03:18;3.22;;;1.63;;
42760;SDS011;31672;47.638;19.026;2022-07-21T04:08:21;2.95;;;1.90;;
42760;SDS011;31672;47.638;19.026;2022-07-21T04:13:24;4.03;;;1.67;;
42760;SDS011;31672;47.638;19.026;2022-07-21T04:18:27;3.63;;;1.63;;
42760;SDS011;31672;47.638;19.026;2022-07-21T04:23:30;4.07;;;1.88;;
42760;SDS011;31672;47.638;19.026;2022-07-21T04:28:33;4.57;;;1.80;;
42760;SDS011;31672;47.638;19.026;2022-07-21T04:33:36;5.82;;;2.17;;
42760;SDS011;31672;47.638;19.026;2022-07-21T04:38:40;3.65;;;2.30;;
42760;SDS011;31672;47.638;19.026;2022-07-21T04:43:43;4.18;;;1.77;;
42760;SDS011;31672;47.638;19.026;2022-07-21T04:48:46;4.72;;;2.60;;
42760;SDS011;31672;47.638;19.026;2022-07-21T04:53:49;4.40;;;1.60;;
42760;SDS011;31672;47.638;19.026;2022-07-21T04:58:52;7.68;;;2.03;;
42760;SDS011;31672;47.638;19.026;2022-07-21T05:03:55;2.70;;;1.70;;
42760;SDS011;31672;47.638;19.026;2022-07-21T05:08:58;6.68;;;1.98;;
42760;SDS011;31672;47.638;19.026;2022-07-21T05:14:01;4.78;;;1.70;;
42760;SDS011;31672;47.638;19.026;2022-07-21T05:19:15;5.85;;;2.00;;
42760;SDS011;31672;47.638;19.026;2022-07-21T05:24:18;6.78;;;2.33;;
42760;SDS011;31672;47.638;19.026;2022-07-21T05:29:21;6.00;;;2.22;;
42760;SDS011;31672;47.638;19.026;2022-07-21T05:34:24;5.80;;;2.45;;
42760;SDS011;31672;47.638;19.026;2022-07-21T05:39:27;6.82;;;2.65;;
42760;SDS011;31672;47.638;19.026;2022-07-21T05:44:31;8.02;;;2.80;;
42760;SDS011;31672;47.638;19.026;2022-07-21T05:49:33;7.10;;;2.00;;
42760;SDS011;31672;47.638;19.026;2022-07-21T05:54:36;3.78;;;2.15;;
42760;SDS011;31672;47.638;19.026;2022-07-21T05:59:41;4.05;;;1.92;;
42760;SDS011;31672;47.638;19.026;2022-07-21T06:04:44;5.68;;;2.17;;
42760;SDS011;31672;47.638;19.026;2022-07-21T06:09:47;8.00;;;2.35;;
42760;SDS011;31672;47.638;19.026;2022-07-21T06:14:50;11.00;;;2.67;;
42760;SDS011;31672;47.638;19.026;2022-07-21T06:19:54;8.88;;;2.60;;
42760;SDS011;31672;47.638;19.026;2022-07-21T06:24:56;10.32;;;3.20;;
42760;SDS011;31672;47.638;19.026;2022-07-21T06:30:00;10.82;;;2.88;;
42760;SDS011;31672;47.638;19.026;2022-07-21T06:35:03;23.60;;;3.25;;
42760;SDS011;31672;47.638;19.026;2022-07-21T06:40:07;15.07;;;3.47;;
42760;SDS011;31672;47.638;19.026;2022-07-21T06:45:11;17.88;;;3.00;;
42760;SDS011;31672;47.638;19.026;2022-07-21T06:50:14;5.63;;;2.42;;
42760;SDS011;31672;47.638;19.026;2022-07-21T06:55:18;5.00;;;2.58;;
42760;SDS011;31672;47.638;19.026;2022-07-21T07:00:21;8.27;;;2.80;;
42760;SDS011;31672;47.638;19.026;2022-07-21T07:05:25;3.33;;;2.50;;
42760;SDS011;31672;47.638;19.026;2022-07-21T07:10:30;7.63;;;2.42;;
42760;SDS011;31672;47.638;19.026;2022-07-21T07:15:34;4.38;;;2.83;;
42760;SDS011;31672;47.638;19.026;2022-07-21T07:20:37;3.78;;;2.55;;
42760;SDS011;31672;47.638;19.026;2022-07-21T07:25:40;6.32;;;2.80;;
42760;SDS011;31672;47.638;19.026;2022-07-21T07:30:43;6.70;;;2.80;;
42760;SDS011;31672;47.638;19.026;2022-07-21T07:35:46;4.65;;;2.58;;
42760;SDS011;31672;47.638;19.026;2022-07-21T07:40:49;4.38;;;2.90;;
42760;SDS011;31672;47.638;19.026;2022-07-21T07:45:53;4.18;;;2.80;;
42760;SDS011;31672;47.638;19.026;2022-07-21T07:50:57;5.60;;;2.78;;
42760;SDS011;31672;47.638;19.026;2022-07-21T07:56:01;4.43;;;2.88;;
42760;SDS011;31672;47.638;19.026;2022-07-21T08:01:05;4.15;;;2.33;;
42760;SDS011;31672;47.638;19.026;2022-07-21T08:06:09;5.22;;;2.30;;
42760;SDS011;31672;47.638;19.026;2022-07-21T08:11:13;7.65;;;3.03;;
42760;SDS011;31672;47.638;19.026;2022-07-21T08:16:17;6.25;;;2.83;;
42760;SDS011;31672;47.638;19.026;2022-07-21T08:21:20;5.13;;;2.83;;
42760;SDS011;31672;47.638;19.026;2022-07-21T08:26:24;7.03;;;2.60;;
42760;SDS011;31672;47.638;19.026;2022-07-21T08:31:27;7.60;;;2.92;;
42760;SDS011;31672;47.638;19.026;2022-07-21T08:36:30;6.28;;;3.38;;
42760;SDS011;31672;47.638;19.026;2022-07-21T08:41:35;4.05;;;2.55;;
42760;SDS011;31672;47.638;19.026;2022-07-21T08:46:41;4.65;;;2.90;;
42760;SDS011;31672;47.638;19.026;2022-07-21T08:51:44;4.15;;;2.50;;
42760;SDS011;31672;47.638;19.026;2022-07-21T08:56:48;4.80;;;2.60;;
42760;SDS011;31672;47.638;19.026;2022-07-21T09:01:51;5.20;;;2.80;;
42760;SDS011;31672;47.638;19.026;2022-07-21T09:06:56;5.63;;;2.63;;
42760;SDS011;31672;47.638;19.026;2022-07-21T09:12:02;7.47;;;3.40;;
42760;SDS011;31672;47.638;19.026;2022-07-21T09:17:05;5.43;;;2.78;;
42760;SDS011;31672;47.638;19.026;2022-07-21T09:22:17;6.38;;;3.10;;
42760;SDS011;31672;47.638;19.026;2022-07-21T09:27:21;4.53;;;2.78;;
42760;SDS011;31672;47.638;19.026;2022-07-21T09:32:31;3.38;;;2.75;;
42760;SDS011;31672;47.638;19.026;2022-07-21T09:37:38;8.77;;;2.65;;
42760;SDS011;31672;47.638;19.026;2022-07-21T09:42:44;5.35;;;2.60;;
42760;SDS011;31672;47.638;19.026;2022-07-21T09:47:52;6.40;;;2.60;;
42760;SDS011;31672;47.638;19.026;2022-07-21T09:52:55;4.32;;;2.60;;
42760;SDS011;31672;47.638;19.026;2022-07-21T09:58:01;5.40;;;2.47;;
42760;SDS011;31672;47.638;19.026;2022-07-21T10:03:05;3.55;;;2.53;;
42760;SDS011;31672;47.638;19.026;2022-07-21T10:08:08;7.50;;;2.80;;
42760;SDS011;31672;47.638;19.026;2022-07-21T10:13:14;6.40;;;2.55;;
42760;SDS011;31672;47.638;19.026;2022-07-21T10:18:18;5.45;;;2.63;;
42760;SDS011;31672;47.638;19.026;2022-07-21T10:23:40;5.07;;;2.50;;
42760;SDS011;31672;47.638;19.026;2022-07-21T10:28:45;4.38;;;2.40;;
42760;SDS011;31672;47.638;19.026;2022-07-21T11:05:31;5.45;;;1.85;;
42760;SDS011;31672;47.638;19.026;2022-07-21T11:10:37;3.35;;;1.75;;
42760;SDS011;31672;47.638;19.026;2022-07-21T11:29:12;5.55;;;2.20;;
42760;SDS011;31672;47.638;19.026;2022-07-21T11:34:16;3.83;;;2.03;;
42760;SDS011;31672;47.638;19.026;2022-07-21T11:39:19;5.63;;;2.15;;
42760;SDS011;31672;47.638;19.026;2022-07-21T11:44:26;6.28;;;2.10;;
42760;SDS011;31672;47.638;19.026;2022-07-21T11:49:29;2.60;;;1.80;;
42760;SDS011;31672;47.638;19.026;2022-07-21T11:59:49;6.05;;;1.80;;
42760;SDS011;31672;47.638;19.026;2022-07-21T12:05:01;3.40;;;1.60;;
42760;SDS011;31672;47.638;19.026;2022-07-21T12:10:11;3.65;;;1.65;;
42760;SDS011;31672;47.638;19.026;2022-07-21T12:15:19;6.35;;;1.70;;
42760;SDS011;31672;47.638;19.026;2022-07-21T12:25:38;3.05;;;1.63;;
42760;SDS011;31672;47.638;19.026;2022-07-21T12:35:59;3.10;;;1.60;;
42760;SDS011;31672;47.638;19.026;2022-07-21T12:41:05;4.25;;;1.83;;
42760;SDS011;31672;47.638;19.026;2022-07-21T12:46:32;4.03;;;1.52;;
42760;SDS011;31672;47.638;19.026;2022-07-21T12:51:38;5.97;;;1.70;;
42760;SDS011;31672;47.638;19.026;2022-07-21T12:56:44;3.03;;;1.90;;
42760;SDS011;31672;47.638;19.026;2022-07-21T13:01:47;3.50;;;1.52;;
42760;SDS011;31672;47.638;19.026;2022-07-21T13:06:56;3.00;;;1.65;;
42760;SDS011;31672;47.638;19.026;2022-07-21T13:11:59;7.15;;;5.15;;
42760;SDS011;31672;47.638;19.026;2022-07-21T13:17:02;4.68;;;1.90;;
42760;SDS011;31672;47.638;19.026;2022-07-21T13:22:05;3.63;;;1.67;;
42760;SDS011;31672;47.638;19.026;2022-07-21T13:27:09;7.75;;;2.05;;
42760;SDS011;31672;47.638;19.026;2022-07-21T13:32:12;3.72;;;1.63;;
42760;SDS011;31672;47.638;19.026;2022-07-21T13:37:16;9.95;;;2.20;;
42760;SDS011;31672;47.638;19.026;2022-07-21T13:42:30;3.80;;;1.92;;
42760;SDS011;31672;47.638;19.026;2022-07-21T13:47:54;4.35;;;2.00;;
42760;SDS011;31672;47.638;19.026;2022-07-21T13:52:57;6.22;;;1.80;;
42760;SDS011;31672;47.638;19.026;2022-07-21T13:58:00;6.32;;;2.10;;
42760;SDS011;31672;47.638;19.026;2022-07-21T14:03:03;6.97;;;2.00;;
42760;SDS011;31672;47.638;19.026;2022-07-21T14:08:06;6.93;;;1.77;;
42760;SDS011;31672;47.638;19.026;2022-07-21T14:13:09;2.50;;;1.70;;
42760;SDS011;31672;47.638;19.026;2022-07-21T14:18:13;5.30;;;1.70;;
42760;SDS011;31672;47.638;19.026;2022-07-21T14:23:16;3.85;;;2.10;;
42760;SDS011;31672;47.638;19.026;2022-07-21T14:28:23;5.30;;;1.55;;
42760;SDS011;31672;47.638;19.026;2022-07-21T14:33:26;3.95;;;1.73;;
42760;SDS011;31672;47.638;19.026;2022-07-21T14:38:31;5.50;;;1.92;;
42760;SDS011;31672;47.638;19.026;2022-07-21T14:43:34;5.00;;;1.80;;
42760;SDS011;31672;47.638;19.026;2022-07-21T14:48:38;4.50;;;1.65;;
42760;SDS011;31672;47.638;19.026;2022-07-21T14:53:42;4.00;;;1.80;;
42760;SDS011;31672;47.638;19.026;2022-07-21T14:58:45;4.28;;;1.77;;
42760;SDS011;31672;47.638;19.026;2022-07-21T15:03:49;4.63;;;1.67;;
42760;SDS011;31672;47.638;19.026;2022-07-21T15:08:52;1.90;;;1.65;;
42760;SDS011;31672;47.638;19.026;2022-07-21T15:13:56;3.38;;;1.88;;
42760;SDS011;31672;47.638;19.026;2022-07-21T15:18:59;6.20;;;2.40;;
42760;SDS011;31672;47.638;19.026;2022-07-21T15:24:02;6.53;;;1.70;;
42760;SDS011;31672;47.638;19.026;2022-07-21T15:29:06;4.40;;;1.92;;
42760;SDS011;31672;47.638;19.026;2022-07-21T15:34:09;2.38;;;1.40;;
42760;SDS011;31672;47.638;19.026;2022-07-21T15:39:13;5.05;;;2.00;;
42760;SDS011;31672;47.638;19.026;2022-07-21T15:44:16;5.43;;;1.83;;
42760;SDS011;31672;47.638;19.026;2022-07-21T15:49:19;6.35;;;1.88;;
42760;SDS011;31672;47.638;19.026;2022-07-21T15:54:23;3.60;;;1.67;;
42760;SDS011;31672;47.638;19.026;2022-07-21T15:59:46;2.90;;;1.70;;
42760;SDS011;31672;47.638;19.026;2022-07-21T16:04:51;3.72;;;1.63;;
42760;SDS011;31672;47.638;19.026;2022-07-21T16:09:55;5.38;;;1.90;;
42760;SDS011;31672;47.638;19.026;2022-07-21T16:14:58;5.80;;;1.70;;
42760;SDS011;31672;47.638;19.026;2022-07-21T16:20:02;3.53;;;1.70;;
42760;SDS011;31672;47.638;19.026;2022-07-21T16:25:15;8.05;;;2.10;;
42760;SDS011;31672;47.638;19.026;2022-07-21T16:30:22;4.50;;;1.80;;
42760;SDS011;31672;47.638;19.026;2022-07-21T16:35:25;5.63;;;2.00;;
42760;SDS011;31672;47.638;19.026;2022-07-21T16:40:28;6.30;;;1.67;;
42760;SDS011;31672;47.638;19.026;2022-07-21T16:45:31;4.30;;;1.90;;
42760;SDS011;31672;47.638;19.026;2022-07-21T16:50:36;4.82;;;2.17;;
42760;SDS011;31672;47.638;19.026;2022-07-21T16:55:39;5.85;;;1.65;;
42760;SDS011;31672;47.638;19.026;2022-07-21T17:00:42;3.63;;;1.70;;
42760;SDS011;31672;47.638;19.026;2022-07-21T17:05:46;7.50;;;2.10;;
42760;SDS011;31672;47.638;19.026;2022-07-21T17:10:49;7.28;;;1.85;;
42760;SDS011;31672;47.638;19.026;2022-07-21T17:15:53;5.18;;;1.92;;
42760;SDS011;31672;47.638;19.026;2022-07-21T17:20:56;3.47;;;1.80;;
42760;SDS011;31672;47.638;19.026;2022-07-21T17:26:00;6.45;;;2.17;;
42760;SDS011;31672;47.638;19.026;2022-07-21T17:31:04;5.10;;;2.13;;
42760;SDS011;31672;47.638;19.026;2022-07-21T17:36:10;4.90;;;1.70;;
42760;SDS011;31672;47.638;19.026;2022-07-21T17:41:15;4.43;;;1.60;;
42760;SDS011;31672;47.638;19.026;2022-07-21T17:46:18;5.82;;;1.70;;
42760;SDS011;31672;47.638;19.026;2022-07-21T17:51:21;4.47;;;2.08;;
42760;SDS011;31672;47.638;19.026;2022-07-21T17:56:24;3.55;;;1.75;;
42760;SDS011;31672;47.638;19.026;2022-07-21T18:01:28;2.60;;;1.38;;
42760;SDS011;31672;47.638;19.026;2022-07-21T18:06:31;4.32;;;2.00;;
42760;SDS011;31672;47.638;19.026;2022-07-21T18:11:34;8.77;;;2.03;;
42760;SDS011;31672;47.638;19.026;2022-07-21T18:16:37;8.68;;;1.90;;
42760;SDS011;31672;47.638;19.026;2022-07-21T18:21:40;6.00;;;1.90;;
42760;SDS011;31672;47.638;19.026;2022-07-21T18:26:43;7.32;;;2.15;;
42760;SDS011;31672;47.638;19.026;2022-07-21T18:31:46;5.10;;;1.88;;
42760;SDS011;31672;47.638;19.026;2022-07-21T18:36:51;4.57;;;2.00;;
42760;SDS011;31672;47.638;19.026;2022-07-21T18:41:55;6.13;;;1.77;;
42760;SDS011;31672;47.638;19.026;2022-07-21T18:46:58;3.30;;;1.58;;
42760;SDS011;31672;47.638;19.026;2022-07-21T18:52:01;4.75;;;1.55;;
42760;SDS011;31672;47.638;19.026;2022-07-21T18:57:05;5.07;;;2.35;;
42760;SDS011;31672;47.638;19.026;2022-07-21T19:02:08;8.75;;;2.17;;
42760;SDS011;31672;47.638;19.026;2022-07-21T19:07:11;5.03;;;2.00;;
42760;SDS011;31672;47.638;19.026;2022-07-21T19:12:34;6.63;;;1.80;;
42760;SDS011;31672;47.638;19.026;2022-07-21T19:17:37;6.72;;;1.63;;
42760;SDS011;31672;47.638;19.026;2022-07-21T19:22:41;3.13;;;1.60;;
42760;SDS011;31672;47.638;19.026;2022-07-21T19:27:45;7.45;;;2.10;;
42760;SDS011;31672;47.638;19.026;2022-07-21T19:32:48;10.27;;;1.73;;
42760;SDS011;31672;47.638;19.026;2022-07-21T19:37:52;4.88;;;2.00;;
42760;SDS011;31672;47.638;19.026;2022-07-21T19:42:57;6.88;;;1.95;;
42760;SDS011;31672;47.638;19.026;2022-07-21T19:48:00;4.00;;;1.65;;
42760;SDS011;31672;47.638;19.026;2022-07-21T19:53:04;7.82;;;2.85;;
42760;SDS011;31672;47.638;19.026;2022-07-21T19:58:07;6.28;;;2.38;;
42760;SDS011;31672;47.638;19.026;2022-07-21T20:03:10;4.75;;;1.85;;
42760;SDS011;31672;47.638;19.026;2022-07-21T20:08:13;7.00;;;2.00;;
42760;SDS011;31672;47.638;19.026;2022-07-21T20:13:17;4.65;;;1.80;;
42760;SDS011;31672;47.638;19.026;2022-07-21T20:18:20;4.57;;;1.85;;
42760;SDS011;31672;47.638;19.026;2022-07-21T20:23:23;8.02;;;2.20;;
42760;SDS011;31672;47.638;19.026;2022-07-21T20:28:26;5.60;;;2.00;;
42760;SDS011;31672;47.638;19.026;2022-07-21T20:33:29;5.72;;;2.28;;
42760;SDS011;31672;47.638;19.026;2022-07-21T20:38:36;4.78;;;1.73;;
42760;SDS011;31672;47.638;19.026;2022-07-21T20:43:39;4.85;;;1.92;;
42760;SDS011;31672;47.638;19.026;2022-07-21T20:48:42;6.70;;;2.05;;
42760;SDS011;31672;47.638;19.026;2022-07-21T20:53:45;5.03;;;2.55;;
42760;SDS011;31672;47.638;19.026;2022-07-21T20:58:49;3.58;;;1.70;;
42760;SDS011;31672;47.638;19.026;2022-07-21T21:03:53;6.20;;;2.33;;
42760;SDS011;31672;47.638;19.026;2022-07-21T21:08:55;7.57;;;2.13;;
42760;SDS011;31672;47.638;19.026;2022-07-21T21:13:59;5.28;;;2.10;;
42760;SDS011;31672;47.638;19.026;2022-07-21T21:19:02;3.40;;;2.08;;
42760;SDS011;31672;47.638;19.026;2022-07-21T21:24:05;6.80;;;1.83;;
42760;SDS011;31672;47.638;19.026;2022-07-21T21:29:08;6.93;;;1.95;;
42760;SDS011;31672;47.638;19.026;2022-07-21T21:34:11;4.78;;;1.60;;
42760;SDS011;31672;47.638;19.026;2022-07-21T21:39:14;7.35;;;2.35;;
42760;SDS011;31672;47.638;19.026;2022-07-21T21:44:20;3.75;;;1.83;;
42760;SDS011;31672;47.638;19.026;2022-07-21T21:49:23;3.72;;;1.88;;
42760;SDS011;31672;47.638;19.026;2022-07-21T21:54:26;3.53;;;1.75;;
42760;SDS011;31672;47.638;19.026;2022-07-21T21:59:30;5.32;;;1.80;;
42760;SDS011;31672;47.638;19.026;2022-07-21T22:04:33;6.60;;;2.10;;
42760;SDS011;31672;47.638;19.026;2022-07-21T22:09:36;5.45;;;1.80;;
42760;SDS011;31672;47.638;19.026;2022-07-21T22:14:39;5.03;;;1.83;;
42760;SDS011;31672;47.638;19.026;2022-07-21T22:19:42;4.00;;;1.77;;
42760;SDS011;31672;47.638;19.026;2022-07-21T22:24:45;4.13;;;2.00;;
42760;SDS011;31672;47.638;19.026;2022-07-21T22:29:48;4.95;;;1.92;;
42760;SDS011;31672;47.638;19.026;2022-07-21T22:34:51;3.05;;;1.63;;
42760;SDS011;31672;47.638;19.026;2022-07-21T22:39:54;6.60;;;2.00;;
42760;SDS011;31672;47.638;19.026;2022-07-21T22:44:57;4.80;;;2.08;;
42760;SDS011;31672;47.638;19.026;2022-07-21T22:50:00;5.82;;;1.83;;
42760;SDS011;31672;47.638;19.026;2022-07-21T22:55:04;7.25;;;1.90;;
42760;SDS011;31672;47.638;19.026;2022-07-21T23:00:07;2.55;;;1.90;;
42760;SDS011;31672;47.638;19.026;2022-07-21T23:05:11;4.47;;;1.70;;
42760;SDS011;31672;47.638;19.026;2022-07-21T23:10:14;3.10;;;1.63;;
42760;SDS011;31672;47.638;19.026;2022-07-21T23:15:18;2.70;;;1.92;;
42760;SDS011;31672;47.638;19.026;2022-07-21T23:20:21;3.08;;;1.88;;
42760;SDS011;31672;47.638;19.026;2022-07-21T23:25:24;4.03;;;1.90;;
42760;SDS011;31672;47.638;19.026;2022-07-21T23:30:28;5.13;;;1.45;;
42760;SDS011;31672;47.638;19.026;2022-07-21T23:35:32;2.22;;;1.73;;
42760;SDS011;31672;47.638;19.026;2022-07-21T23:40:35;3.10;;;1.50;;
42760;SDS011;31672;47.638;19.026;2022-07-21T23:45:38;3.28;;;1.30;;
42760;SDS011;31672;47.638;19.026;2022-07-21T23:50:42;8.65;;;1.75;;
42760;SDS011;31672;47.638;19.026;2022-07-21T23:55:45;2.40;;;1.58;;
